Terminal Aerodrome Forecast
Issued by NWS Atlanta, GA

Home | Current Version | Previous Version | Text Only | Print | Product List | Glossary On
Versions: 1 2 3 4 5 6 7 8 9 10 11 12 13 14 15 16 17 18 19 20 21 22 23 24 25 26 27 28 29 30 31 32 33 34 35 36 37 38 39
000
FTUS42 KFFC 240930 AAB
TAFATL
TAF AMD
KATL 240930Z 2410/2512 12007KT P6SM SCT250
     FM241100 12005KT P6SM SCT020
     FM241500 13009G14KT P6SM SCT035
     FM241900 11012G19KT P6SM SCT050
     FM250100 11010KT P6SM FEW080
     FM250800 13009G14KT P6SM BKN012=

USA.gov is the U.S. government's official web portal to all federal, state and local government web resources and services.